Time;durP1;ratioP1;P1;durP2;ratioP2;P2;SDS_P1;SDS_P2;PMS_P1;PMS_P2;Temp;Humidity;BMP_temperature;BMP_pressure;BME280_temperature;BME280_humidity;BME280_pressure;Samples;Min_cycle;Max_cycle;Signal;HPM_P1;HPM_P2
2022/11/28 00:00:54;;;;;;;;;;;;;;;8.66;62.62;101575.78;5038719;28;19925;-59
2022/11/28 00:03:21;;;;;;;;;;;;;;;8.69;62.48;101573.19;5051727;28;19928;-60
2022/11/28 00:05:46;;;;;;;;;;;;;;;8.63;62.37;101574.94;5053591;28;19921;-60
2022/11/28 00:08:11;;;;;;;;;;;;;;;8.57;62.40;101579.25;5053738;28;20368;-60
2022/11/28 00:10:38;;;;;;;;;;;;;;;8.48;62.73;101577.47;5039706;28;19971;-60
2022/11/28 00:13:03;;;;;;;;;;;;;;;8.44;62.96;101573.06;5033735;28;20044;-60
2022/11/28 00:15:28;;;;;;;;;;;;;;;8.48;62.94;101571.34;5039272;28;20036;-60
2022/11/28 00:17:53;;;;;;;;;;;;;;;8.43;62.99;101573.06;5031885;28;20372;-61
2022/11/28 00:20:19;;;;;;;;;;;;;;;8.45;62.88;101566.09;5031688;28;19951;-60
2022/11/28 00:22:44;;;;;;;;;;;;;;;8.46;62.83;101571.34;5033486;28;20063;-59
2022/11/28 00:25:09;;;;;;;;;;;;;;;8.47;62.86;101574.84;5033659;28;19921;-59
2022/11/28 00:27:34;;;;;;;;;;;;;;;8.45;62.70;101577.44;5044776;28;19925;-59
2022/11/28 00:30:00;;;;;;;;;;;;;;;8.44;63.04;101580.06;5052574;28;20028;-59
2022/11/28 00:32:26;;;;;;;;;;;;;;;8.46;63.09;101583.53;5041390;28;19932;-60
2022/11/28 00:34:51;;;;;;;;;;;;;;;8.36;63.29;101573.00;5046883;28;20402;-59
2022/11/28 00:37:17;;;;;;;;;;;;;;;8.34;63.28;101566.88;5053242;28;19927;-59
2022/11/28 00:39:42;;;;;;;;;;;;;;;8.41;63.38;101570.44;5053405;28;19920;-60
2022/11/28 00:42:07;;;;;;;;;;;;;;;8.48;63.25;101566.97;5036131;28;20011;-59
2022/11/28 00:44:32;;;;;;;;;;;;;;;8.37;63.26;101566.03;5033294;28;20438;-60
2022/11/28 00:46:58;;;;;;;;;;;;;;;8.40;63.14;101573.91;5039674;28;19933;-60
2022/11/28 00:49:23;;;;;;;;;;;;;;;8.38;63.48;101571.31;5033533;28;20009;-60
2022/11/28 00:51:48;;;;;;;;;;;;;;;8.39;63.59;101578.28;5032875;28;19925;-59
2022/11/28 00:54:13;;;;;;;;;;;;;;;8.31;63.75;101576.47;5033461;28;20365;-60
2022/11/28 00:56:39;;;;;;;;;;;;;;;8.36;63.67;101577.34;5033354;28;20000;-58
2022/11/28 00:59:06;;;;;;;;;;;;;;;8.19;63.78;101574.63;5033991;28;19925;-59
2022/11/28 01:01:35;;;;;;;;;;;;;;;8.30;63.96;101562.50;5037780;28;20015;-59
2022/11/28 01:04:02;;;;;;;;;;;;;;;8.26;64.13;101565.06;5035290;28;20381;-60
2022/11/28 01:06:29;;;;;;;;;;;;;;;8.30;63.88;101569.47;5036776;28;19921;-60
2022/11/28 01:08:55;;;;;;;;;;;;;;;8.34;63.96;101568.63;5037594;28;20305;-60
2022/11/28 01:11:20;;;;;;;;;;;;;;;8.37;63.87;101563.41;5037124;28;19975;-60
2022/11/28 01:13:46;;;;;;;;;;;;;;;8.32;63.75;101559.88;5035328;28;20270;-60
2022/11/28 01:16:11;;;;;;;;;;;;;;;8.23;64.07;101558.06;5036567;28;19921;-60
2022/11/28 01:18:36;;;;;;;;;;;;;;;8.09;65.00;101554.47;5036286;28;19928;-59
2022/11/28 01:21:02;;;;;;;;;;;;;;;8.21;64.70;101553.69;5051851;28;19951;-60
2022/11/28 01:23:28;;;;;;;;;;;;;;;8.29;64.87;101551.97;5039976;28;19925;-60
2022/11/28 01:25:53;;;;;;;;;;;;;;;8.18;64.39;101545.78;5036068;28;19971;-60
2022/11/28 01:28:18;;;;;;;;;;;;;;;8.23;64.36;101542.38;5036536;28;20008;-60
2022/11/28 01:30:43;;;;;;;;;;;;;;;8.19;64.23;101545.81;5056142;28;19917;-60
2022/11/28 01:33:09;;;;;;;;;;;;;;;8.25;63.61;101538.00;5054143;28;19920;-60
2022/11/28 01:35:34;;;;;;;;;;;;;;;8.23;63.53;101533.63;5055908;28;19917;-60
2022/11/28 01:37:59;;;;;;;;;;;;;;;8.26;63.67;101533.63;5054748;28;20023;-59
2022/11/28 01:40:24;;;;;;;;;;;;;;;8.21;63.46;101522.25;5049600;28;19921;-60
2022/11/28 01:42:50;;;;;;;;;;;;;;;8.27;63.39;101533.66;5035079;28;20028;-60
2022/11/28 01:45:33;;;;;;;;;;;;;;;8.30;63.31;101522.34;5035978;28;20435;-59
2022/11/28 01:48:00;;;;;;;;;;;;;;;8.34;63.38;101521.50;5038150;28;19960;-59
2022/11/28 01:50:27;;;;;;;;;;;;;;;8.40;63.38;101521.53;5036036;28;20007;-60
2022/11/28 01:52:55;;;;;;;;;;;;;;;8.43;63.02;101521.56;5034194;28;19925;-59
2022/11/28 01:55:23;;;;;;;;;;;;;;;8.44;62.74;101523.31;5035720;28;19917;-59
2022/11/28 01:57:49;;;;;;;;;;;;;;;8.47;62.61;101527.69;5035705;28;19948;-59
2022/11/28 02:00:17;;;;;;;;;;;;;;;8.25;62.27;101526.66;5035105;28;19925;-59
2022/11/28 02:02:51;;;;;;;;;;;;;;;8.18;62.76;101525.75;5039226;28;20354;-59
2022/11/28 02:05:18;;;;;;;;;;;;;;;7.96;63.09;101522.09;5050909;28;20074;-58
2022/11/28 02:07:43;;;;;;;;;;;;;;;7.96;63.64;101519.47;5041868;28;19921;-59
2022/11/28 02:10:10;;;;;;;;;;;;;;;8.05;63.69;101513.44;5044326;28;19947;-59
2022/11/28 02:13:02;;;;;;;;;;;;;;;8.04;63.47;101515.19;5048841;28;19928;-59
2022/11/28 02:15:46;;;;;;;;;;;;;;;8.11;63.28;101514.34;5020477;28;19928;-60
2022/11/28 02:18:23;;;;;;;;;;;;;;;8.08;62.71;101514.34;5035354;28;19940;-59
2022/11/28 02:21:04;;;;;;;;;;;;;;;8.07;62.79;101509.97;5044135;28;19950;-59
2022/11/28 02:23:38;;;;;;;;;;;;;;;8.11;63.05;101514.34;5053728;28;19920;-58
2022/11/28 02:26:22;;;;;;;;;;;;;;;8.05;63.00;101506.44;5055017;28;19959;-59
2022/11/28 02:28:59;;;;;;;;;;;;;;;7.94;63.21;101509.84;5040265;28;19928;-60
2022/11/28 02:31:43;;;;;;;;;;;;;;;7.95;63.34;101507.28;5035396;28;19924;-60
2022/11/28 02:34:13;;;;;;;;;;;;;;;7.89;63.19;101508.09;5038639;28;20112;-58
2022/11/28 02:36:41;;;;;;;;;;;;;;;7.80;63.72;101510.63;5035171;28;19921;-58
2022/11/28 02:39:06;;;;;;;;;;;;;;;7.83;63.56;101512.41;5035200;28;19924;-60
2022/11/28 02:41:53;;;;;;;;;;;;;;;7.89;63.67;101501.97;5054899;28;19916;-59
2022/11/28 02:44:23;;;;;;;;;;;;;;;7.97;63.34;101505.53;5054656;28;19924;-59
2022/11/28 02:47:04;;;;;;;;;;;;;;;7.90;63.09;101506.38;5034464;28;20118;-60
2022/11/28 02:49:52;;;;;;;;;;;;;;;7.94;63.22;101508.16;5035933;28;19939;-60
2022/11/28 02:52:20;;;;;;;;;;;;;;;7.81;63.24;101506.28;5034374;28;19947;-59
2022/11/28 02:54:46;;;;;;;;;;;;;;;7.94;63.35;101509.84;5034674;28;19928;-59
2022/11/28 02:57:11;;;;;;;;;;;;;;;7.79;63.46;101505.41;5035331;28;20016;-59
2022/11/28 02:59:36;;;;;;;;;;;;;;;7.92;63.68;101504.63;5039944;28;19921;-59
2022/11/28 03:02:03;;;;;;;;;;;;;;;7.89;63.01;101502.84;5053130;28;20368;-59
2022/11/28 03:04:42;;;;;;;;;;;;;;;7.93;63.17;101503.75;5052236;28;19928;-58
2022/11/28 03:07:07;;;;;;;;;;;;;;;7.91;62.93;101497.66;5041432;28;19928;-58
2022/11/28 03:09:42;;;;;;;;;;;;;;;7.87;62.91;101496.75;5034458;28;19917;-60
2022/11/28 03:12:07;;;;;;;;;;;;;;;7.92;63.37;101496.78;5034563;28;19987;-60
2022/11/28 03:14:35;;;;;;;;;;;;;;;7.89;63.19;101491.50;5034406;28;20277;-60
2022/11/28 03:17:06;;;;;;;;;;;;;;;7.98;63.47;101496.84;5041140;28;20387;-60
2022/11/28 03:19:35;;;;;;;;;;;;;;;8.02;63.35;101502.94;5049172;28;19932;-60
2022/11/28 03:22:19;;;;;;;;;;;;;;;8.02;63.38;101498.59;5040757;28;19950;-60
2022/11/28 03:24:47;;;;;;;;;;;;;;;8.07;63.61;101509.97;5038295;28;19921;-59
2022/11/28 03:27:19;;;;;;;;;;;;;;;8.11;63.19;101498.66;5034581;28;20333;-60
2022/11/28 03:29:50;;;;;;;;;;;;;;;8.11;62.78;101503.88;5036288;28;19928;-60
2022/11/28 03:32:20;;;;;;;;;;;;;;;8.13;63.20;101502.13;5033892;28;19963;-60
2022/11/28 03:34:48;;;;;;;;;;;;;;;8.02;62.93;101501.22;5034071;28;19917;-59
2022/11/28 03:37:18;;;;;;;;;;;;;;;8.01;62.70;101495.94;5034470;28;19921;-61
2022/11/28 03:39:47;;;;;;;;;;;;;;;7.98;62.80;101496.84;5033935;28;19917;-60
2022/11/28 03:42:16;;;;;;;;;;;;;;;7.95;63.29;101491.56;5033895;28;19953;-61
2022/11/28 03:44:46;;;;;;;;;;;;;;;7.94;63.07;101489.81;5050910;28;19986;-60
2022/11/28 03:47:12;;;;;;;;;;;;;;;7.95;63.08;101493.31;5034255;28;19925;-60
2022/11/28 03:49:39;;;;;;;;;;;;;;;8.03;63.23;101489.88;5033572;28;20442;-60
2022/11/28 03:52:06;;;;;;;;;;;;;;;8.05;62.93;101492.50;5033222;28;20292;-60
2022/11/28 03:54:34;;;;;;;;;;;;;;;8.10;62.79;101493.41;5052447;28;19921;-60
2022/11/28 03:57:16;;;;;;;;;;;;;;;8.10;62.84;101496.03;5043021;28;19928;-60
2022/11/28 03:59:43;;;;;;;;;;;;;;;8.11;62.68;101497.78;5033693;28;19917;-60
2022/11/28 04:02:17;;;;;;;;;;;;;;;8.13;63.04;101496.91;5046802;28;20343;-60
2022/11/28 04:04:51;;;;;;;;;;;;;;;8.09;62.67;101500.38;5033813;28;19952;-61
2022/11/28 04:07:19;;;;;;;;;;;;;;;8.03;62.92;101494.25;5033782;28;20021;-60
2022/11/28 04:09:48;;;;;;;;;;;;;;;7.90;63.10;101496.78;5035442;28;20483;-61
2022/11/28 04:12:19;;;;;;;;;;;;;;;7.93;63.30;101493.28;5033405;28;19939;-59
2022/11/28 04:14:47;;;;;;;;;;;;;;;7.93;63.24;101495.91;5033962;28;19971;-59
2022/11/28 04:17:13;;;;;;;;;;;;;;;8.01;63.09;101494.22;5032091;28;19979;-59
2022/11/28 04:19:50;;;;;;;;;;;;;;;8.10;63.00;101490.81;5031832;28;19929;-59
2022/11/28 04:22:18;;;;;;;;;;;;;;;8.12;62.87;101495.16;5037486;28;19921;-59
2022/11/28 04:25:06;;;;;;;;;;;;;;;8.06;62.53;101489.03;5052414;28;19920;-59
2022/11/28 04:27:35;;;;;;;;;;;;;;;8.06;62.78;101484.66;5047691;28;19917;-59
2022/11/28 04:30:02;;;;;;;;;;;;;;;8.10;62.89;101481.19;5037329;28;20377;-59
2022/11/28 04:32:30;;;;;;;;;;;;;;;8.14;62.87;101469.00;5033300;28;19917;-59
2022/11/28 04:35:02;;;;;;;;;;;;;;;8.11;62.42;101475.09;5036146;28;19917;-59
2022/11/28 04:37:28;;;;;;;;;;;;;;;7.97;62.94;101481.09;5038655;28;19928;-59
2022/11/28 04:39:55;;;;;;;;;;;;;;;7.94;62.81;101473.22;5045718;28;19920;-59
2022/11/28 04:42:22;;;;;;;;;;;;;;;8.03;62.96;101473.31;5047024;28;19928;-59
2022/11/28 04:44:52;;;;;;;;;;;;;;;8.03;62.94;101474.16;5054073;28;19921;-59
2022/11/28 04:47:17;;;;;;;;;;;;;;;7.99;63.09;101477.63;5056060;28;19917;-60
2022/11/28 04:49:42;;;;;;;;;;;;;;;7.98;62.99;101481.13;5055959;28;19921;-59
2022/11/28 04:52:08;;;;;;;;;;;;;;;7.99;62.91;101482.00;5047763;28;19935;-59
2022/11/28 04:54:45;;;;;;;;;;;;;;;8.08;62.84;101479.44;5042558;28;19963;-61
2022/11/28 04:57:10;;;;;;;;;;;;;;;8.07;62.45;101475.06;5051980;28;20004;-59
2022/11/28 04:59:35;;;;;;;;;;;;;;;8.14;62.78;101472.50;5036788;28;20007;-59
2022/11/28 05:02:03;;;;;;;;;;;;;;;8.14;62.54;101479.47;5036693;28;19960;-60
2022/11/28 05:04:29;;;;;;;;;;;;;;;8.15;62.54;101470.75;5036150;28;20101;-60
2022/11/28 05:07:04;;;;;;;;;;;;;;;8.18;62.46;101473.41;5049746;28;19925;-59
2022/11/28 05:09:29;;;;;;;;;;;;;;;8.22;62.48;101472.53;5036708;28;19940;-60
2022/11/28 05:11:55;;;;;;;;;;;;;;;8.18;64.33;101478.63;5046290;28;20305;-59
2022/11/28 05:14:21;;;;;;;;;;;;;;;8.26;62.69;101468.16;5056450;28;19975;-59
2022/11/28 05:16:46;;;;;;;;;;;;;;;8.28;62.58;101469.06;5042662;28;19921;-61
2022/11/28 05:19:11;;;;;;;;;;;;;;;8.36;63.43;101456.88;5036604;28;20326;-60
2022/11/28 05:21:37;;;;;;;;;;;;;;;8.37;62.93;101461.28;5036565;28;19921;-60
2022/11/28 05:24:03;;;;;;;;;;;;;;;8.39;62.41;101452.56;5045857;28;20383;-60
2022/11/28 05:26:31;;;;;;;;;;;;;;;8.42;62.54;101454.34;5056237;28;20066;-59
2022/11/28 05:28:56;;;;;;;;;;;;;;;8.23;62.16;101452.47;5071147;28;19924;-61
2022/11/28 05:31:21;;;;;;;;;;;;;;;8.19;62.87;101459.44;5054932;28;19966;-60
2022/11/28 05:33:47;;;;;;;;;;;;;;;8.15;63.28;101448.06;5046263;28;19925;-60
2022/11/28 05:36:13;;;;;;;;;;;;;;;8.14;63.92;101453.31;5039901;28;19922;-60
2022/11/28 05:38:38;;;;;;;;;;;;;;;8.05;63.17;101451.47;5038161;28;19979;-59
2022/11/28 05:41:04;;;;;;;;;;;;;;;8.14;63.40;101456.78;5041744;28;20027;-60
2022/11/28 05:43:30;;;;;;;;;;;;;;;8.18;62.95;101455.06;5039338;28;19929;-60
2022/11/28 05:45:55;;;;;;;;;;;;;;;8.19;62.75;101455.94;5043532;28;19921;-59
2022/11/28 05:48:21;;;;;;;;;;;;;;;8.14;62.65;101467.25;5037238;28;19957;-61
2022/11/28 05:50:49;;;;;;;;;;;;;;;8.03;62.69;101466.31;5038600;28;19921;-60
2022/11/28 05:53:14;;;;;;;;;;;;;;;8.09;62.83;101466.34;5038263;28;19921;-59
2022/11/28 05:55:40;;;;;;;;;;;;;;;8.03;62.69;101462.84;5041639;28;19921;-61
2022/11/28 05:58:05;;;;;;;;;;;;;;;7.90;64.33;101464.50;5034202;28;19925;-60
2022/11/28 06:00:30;;;;;;;;;;;;;;;8.10;63.69;101464.63;5042134;28;20387;-63
2022/11/28 06:02:56;;;;;;;;;;;;;;;8.15;62.68;101468.13;5054235;28;19924;-59
2022/11/28 06:05:21;;;;;;;;;;;;;;;8.26;62.38;101465.56;5051170;28;19928;-59
2022/11/28 06:07:46;;;;;;;;;;;;;;;8.25;61.98;101463.81;5038024;28;19925;-60
2022/11/28 06:10:11;;;;;;;;;;;;;;;8.18;62.12;101457.69;5038360;28;19924;-61
2022/11/28 06:12:36;;;;;;;;;;;;;;;8.18;62.60;101457.69;5042878;28;19924;-59
2022/11/28 06:15:02;;;;;;;;;;;;;;;8.17;62.29;101460.28;5050827;28;20438;-60
2022/11/28 06:17:27;;;;;;;;;;;;;;;8.25;62.33;101454.22;5037792;28;19917;-59
2022/11/28 06:19:52;;;;;;;;;;;;;;;8.17;62.48;101449.81;5035591;28;19929;-59
2022/11/28 06:22:18;;;;;;;;;;;;;;;8.17;62.23;101445.44;5036498;28;19927;-59
2022/11/28 06:24:43;;;;;;;;;;;;;;;8.09;62.66;101442.78;5044333;28;21299;-59
2022/11/28 06:27:08;;;;;;;;;;;;;;;8.06;62.78;101450.63;5044267;28;19937;-59
2022/11/28 06:29:33;;;;;;;;;;;;;;;8.11;62.54;101453.28;5037009;28;20369;-59
2022/11/28 06:31:59;;;;;;;;;;;;;;;8.01;62.78;101454.06;5040521;28;20015;-59
2022/11/28 06:34:24;;;;;;;;;;;;;;;7.91;62.66;101450.53;5039846;28;19925;-59
2022/11/28 06:36:49;;;;;;;;;;;;;;;7.89;62.84;101450.50;5052536;28;20300;-59
2022/11/28 06:39:15;;;;;;;;;;;;;;;7.82;62.72;101447.84;5045690;28;19956;-58
2022/11/28 06:41:41;;;;;;;;;;;;;;;7.87;62.80;101441.78;5034991;28;20284;-59
2022/11/28 06:44:06;;;;;;;;;;;;;;;7.83;62.47;101447.00;5034837;28;19975;-59
2022/11/28 06:46:32;;;;;;;;;;;;;;;7.93;62.77;101450.53;5037350;28;19921;-60
2022/11/28 06:48:57;;;;;;;;;;;;;;;7.90;62.89;101451.41;5055141;28;20011;-59
2022/11/28 06:51:22;;;;;;;;;;;;;;;7.80;62.63;101441.75;5050150;28;20016;-60
2022/11/28 06:53:48;;;;;;;;;;;;;;;7.75;62.72;101446.06;5051918;28;19971;-59
2022/11/28 06:56:15;;;;;;;;;;;;;;;7.73;63.54;101443.44;5054367;28;19966;-59
2022/11/28 06:58:41;;;;;;;;;;;;;;;7.70;62.86;101442.53;5047651;28;20080;-60
2022/11/28 07:01:08;;;;;;;;;;;;;;;7.72;63.06;101443.44;5045648;28;20066;-59
2022/11/28 07:03:33;;;;;;;;;;;;;;;7.73;62.91;101447.78;5049399;28;19916;-59
2022/11/28 07:05:59;;;;;;;;;;;;;;;7.68;62.94;101444.28;5040262;28;19951;-60
2022/11/28 07:08:24;;;;;;;;;;;;;;;7.73;62.92;101443.44;5037692;28;20346;-60
2022/11/28 07:10:49;;;;;;;;;;;;;;;7.76;63.50;101456.53;5048300;28;20408;-60
2022/11/28 07:13:15;;;;;;;;;;;;;;;7.76;62.79;101458.28;5050635;28;20384;-60
2022/11/28 07:15:46;;;;;;;;;;;;;;;7.82;63.08;101450.47;5041530;28;19929;-60
2022/11/28 07:18:11;;;;;;;;;;;;;;;7.87;62.51;101459.25;5042059;28;19928;-60
2022/11/28 07:20:37;;;;;;;;;;;;;;;7.75;62.52;101452.19;5036924;28;20008;-59
2022/11/28 07:23:02;;;;;;;;;;;;;;;7.72;62.62;101454.78;5044629;28;19925;-59
2022/11/28 07:25:28;;;;;;;;;;;;;;;7.71;62.80;101454.78;5050131;28;19975;-60
2022/11/28 07:27:53;;;;;;;;;;;;;;;7.86;62.58;101454.88;5041221;28;20415;-60
2022/11/28 07:30:19;;;;;;;;;;;;;;;7.96;62.09;101456.66;5038679;28;19947;-59
2022/11/28 07:32:45;;;;;;;;;;;;;;;7.96;62.45;101450.56;5054081;28;19921;-59
2022/11/28 07:35:11;;;;;;;;;;;;;;;7.86;62.13;101452.25;5046375;28;20326;-58
2022/11/28 07:37:36;;;;;;;;;;;;;;;7.89;61.97;101452.25;5041858;28;20016;-60
2022/11/28 07:40:02;;;;;;;;;;;;;;;7.91;61.53;101453.16;5039911;28;20020;-59
2022/11/28 07:42:27;;;;;;;;;;;;;;;7.88;61.63;101454.00;5035505;28;19917;-60
2022/11/28 07:44:53;;;;;;;;;;;;;;;7.85;61.79;101447.88;5035666;28;19928;-59
2022/11/28 07:47:18;;;;;;;;;;;;;;;7.83;61.76;101450.50;5035828;28;19974;-59
2022/11/28 07:49:44;;;;;;;;;;;;;;;7.83;61.62;101452.25;5036913;28;20089;-59
2022/11/28 07:52:09;;;;;;;;;;;;;;;7.75;62.27;101452.19;5043677;28;19929;-59
2022/11/28 07:54:34;;;;;;;;;;;;;;;7.81;61.80;101446.09;5038266;28;20297;-59
2022/11/28 07:56:59;;;;;;;;;;;;;;;7.89;61.97;101447.91;5044484;28;20015;-59
2022/11/28 07:59:25;;;;;;;;;;;;;;;7.92;61.53;101446.19;5041158;28;19959;-61
2022/11/28 08:01:52;;;;;;;;;;;;;;;8.06;61.59;101432.31;5040022;28;19964;-59
2022/11/28 08:04:17;;;;;;;;;;;;;;;8.14;60.81;101434.97;5042756;28;20010;-60
2022/11/28 08:06:43;;;;;;;;;;;;;;;8.21;61.12;101441.09;5046407;28;20653;-61
2022/11/28 08:09:10;;;;;;;;;;;;;;;8.30;60.77;101435.94;5037940;28;19963;-60
2022/11/28 08:11:36;;;;;;;;;;;;;;;8.30;60.45;101435.94;5041546;28;19925;-61
2022/11/28 08:14:01;;;;;;;;;;;;;;;8.29;60.48;101439.38;5053045;28;19921;-59
2022/11/28 08:16:27;;;;;;;;;;;;;;;8.37;60.80;101433.34;5044975;28;20276;-59
2022/11/28 08:18:53;;;;;;;;;;;;;;;8.44;60.93;101446.47;5052883;28;19931;-60
2022/11/28 08:21:23;;;;;;;;;;;;;;;8.39;60.59;101436.00;5044700;28;19925;-60
2022/11/28 08:23:50;;;;;;;;;;;;;;;8.47;60.16;101439.50;5051493;28;20261;-59
2022/11/28 08:26:16;;;;;;;;;;;;;;;8.46;60.07;101443.00;5042641;28;20004;-61
2022/11/28 08:28:42;;;;;;;;;;;;;;;8.35;60.37;101435.06;5049030;28;20442;-59
2022/11/28 08:31:11;;;;;;;;;;;;;;;8.35;60.57;101434.19;5039071;28;19921;-59
2022/11/28 08:33:37;;;;;;;;;;;;;;;8.25;60.68;101438.50;5045525;28;19968;-59
2022/11/28 08:36:06;;;;;;;;;;;;;;;8.23;60.69;101436.75;5057427;28;19979;-60
2022/11/28 08:38:32;;;;;;;;;;;;;;;8.11;60.82;101441.06;5043497;28;19917;-60
2022/11/28 08:41:01;;;;;;;;;;;;;;;8.22;60.54;101434.97;5044756;28;19932;-60
2022/11/28 08:43:26;;;;;;;;;;;;;;;8.21;60.64;101433.25;5041337;28;19960;-60
2022/11/28 08:45:51;;;;;;;;;;;;;;;8.15;60.78;101434.97;5046961;28;19968;-60
2022/11/28 08:48:17;;;;;;;;;;;;;;;8.03;60.83;101439.28;5047560;28;19932;-60
2022/11/28 08:50:46;;;;;;;;;;;;;;;8.09;61.00;101431.44;5053294;28;20016;-59
2022/11/28 08:53:11;;;;;;;;;;;;;;;7.99;61.11;101430.53;5052964;28;20032;-59
2022/11/28 08:55:39;;;;;;;;;;;;;;;8.13;61.19;101428.84;5044669;28;20028;-59
2022/11/28 08:58:04;;;;;;;;;;;;;;;8.23;61.04;101428.91;5040277;28;19921;-61
2022/11/28 09:00:30;;;;;;;;;;;;;;;8.30;60.49;101421.09;5035812;28;20576;-61
2022/11/28 09:02:55;;;;;;;;;;;;;;;8.29;60.66;101431.53;5039247;28;19925;-60
2022/11/28 09:05:21;;;;;;;;;;;;;;;8.27;60.61;101436.78;5036178;28;19979;-60
2022/11/28 09:07:46;;;;;;;;;;;;;;;8.28;60.85;101430.66;5041376;28;19924;-60
2022/11/28 09:10:12;;;;;;;;;;;;;;;8.24;60.63;101441.13;5045677;28;19921;-60
2022/11/28 09:12:37;;;;;;;;;;;;;;;8.24;60.49;101438.50;5035823;28;19925;-60
2022/11/28 09:15:02;;;;;;;;;;;;;;;8.04;60.26;101441.88;5038154;28;19925;-60
2022/11/28 09:17:27;;;;;;;;;;;;;;;8.07;60.57;101423.59;5043481;28;20018;-61
2022/11/28 09:19:53;;;;;;;;;;;;;;;8.12;60.80;101427.09;5046256;28;19929;-59
2022/11/28 09:22:18;;;;;;;;;;;;;;;8.30;60.71;101428.06;5048452;28;20332;-61
2022/11/28 09:24:44;;;;;;;;;;;;;;;8.42;60.40;101428.16;5049664;28;19932;-61
2022/11/28 09:27:09;;;;;;;;;;;;;;;8.42;60.92;101419.38;5047396;28;19943;-60
2022/11/28 09:29:34;;;;;;;;;;;;;;;8.53;60.26;101428.16;5041480;28;19925;-60
2022/11/28 09:31:59;;;;;;;;;;;;;;;8.55;59.45;101427.31;5046211;28;19940;-60
2022/11/28 09:34:26;;;;;;;;;;;;;;;8.36;59.51;101420.22;5047511;28;19960;-60
2022/11/28 09:36:51;;;;;;;;;;;;;;;8.33;59.79;101430.69;5047925;28;19921;-60
2022/11/28 09:39:16;;;;;;;;;;;;;;;8.43;59.75;101427.28;5038738;28;20317;-60
2022/11/28 09:41:48;;;;;;;;;;;;;;;8.35;59.32;101423.72;5046692;28;19921;-60
2022/11/28 09:44:16;;;;;;;;;;;;;;;8.30;59.52;101418.47;5041802;28;19921;-61
2022/11/28 09:46:42;;;;;;;;;;;;;;;8.41;59.78;101413.28;5048936;28;19921;-60
2022/11/28 09:49:27;;;;;;;;;;;;;;;8.35;59.41;101418.47;5048082;28;19925;-62
2022/11/28 09:51:56;;;;;;;;;;;;;;;8.22;59.83;101414.94;5045217;28;19970;-60
2022/11/28 09:54:33;;;;;;;;;;;;;;;8.09;59.46;101410.50;5041430;28;20003;-61
2022/11/28 09:56:59;;;;;;;;;;;;;;;8.15;59.92;101406.19;5065556;28;20455;-61
2022/11/28 09:59:26;;;;;;;;;;;;;;;8.21;60.02;101410.56;5054212;28;19944;-61
2022/11/28 10:01:51;;;;;;;;;;;;;;;8.21;60.04;101412.28;5052183;28;20332;-60
2022/11/28 10:04:22;;;;;;;;;;;;;;;8.17;59.92;101407.91;5047730;28;20433;-61
2022/11/28 10:06:56;;;;;;;;;;;;;;;8.25;60.11;101401.84;5070684;28;19966;-61
2022/11/28 10:09:42;;;;;;;;;;;;;;;8.09;59.83;101405.25;5044273;28;19925;-60
2022/11/28 10:12:16;;;;;;;;;;;;;;;8.12;59.90;101400.91;5034040;28;19921;-59
2022/11/28 10:14:54;;;;;;;;;;;;;;;8.15;60.17;101403.56;5034246;28;19928;-60
2022/11/28 10:17:19;;;;;;;;;;;;;;;8.27;60.08;101400.13;5040561;28;19921;-59
2022/11/28 10:19:59;;;;;;;;;;;;;;;8.24;59.87;101396.59;5033767;28;19971;-60
2022/11/28 10:22:47;;;;;;;;;;;;;;;8.32;60.02;101397.50;5033677;28;19968;-60
2022/11/28 10:25:16;;;;;;;;;;;;;;;8.24;59.55;101399.22;5037883;28;19917;-61
2022/11/28 10:27:42;;;;;;;;;;;;;;;8.29;59.65;101398.38;5046065;28;20388;-60
2022/11/28 10:30:27;;;;;;;;;;;;;;;8.23;59.60;101406.22;5040609;28;19996;-61
2022/11/28 10:33:22;;;;;;;;;;;;;;;8.38;59.51;101411.56;5044222;28;19929;-61
2022/11/28 10:35:52;;;;;;;;;;;;;;;8.38;59.09;101408.06;5039872;28;19957;-59
2022/11/28 10:38:24;;;;;;;;;;;;;;;8.25;58.90;101411.44;5040845;28;19921;-60
2022/11/28 10:40:55;;;;;;;;;;;;;;;8.11;59.62;101406.16;5045142;28;19935;-61
2022/11/28 10:43:32;;;;;;;;;;;;;;;8.13;59.99;101400.03;5051615;28;19917;-59
2022/11/28 10:46:12;;;;;;;;;;;;;;;8.21;60.18;101404.44;5050561;28;19916;-61
2022/11/28 10:48:46;;;;;;;;;;;;;;;8.25;59.88;101403.59;5050588;28;19920;-61
2022/11/28 10:51:27;;;;;;;;;;;;;;;8.37;59.98;101403.66;5046274;28;20311;-60
2022/11/28 10:54:00;;;;;;;;;;;;;;;8.38;59.92;101401.06;5041640;28;20403;-60
2022/11/28 10:56:35;;;;;;;;;;;;;;;8.33;59.60;101400.13;5047010;28;20475;-60
2022/11/28 10:59:10;;;;;;;;;;;;;;;8.27;59.93;101405.34;5044985;28;19925;-60
2022/11/28 11:01:38;;;;;;;;;;;;;;;8.19;59.85;101403.59;5043967;28;20452;-60
2022/11/28 11:04:04;;;;;;;;;;;;;;;8.16;59.74;101393.97;5031523;28;19917;-61
2022/11/28 11:06:29;;;;;;;;;;;;;;;8.11;59.86;101395.69;5046816;28;19929;-61
2022/11/28 11:08:55;;;;;;;;;;;;;;;8.16;60.26;101396.56;5048089;28;20304;-61
2022/11/28 11:11:26;;;;;;;;;;;;;;;8.21;59.96;101394.84;5037999;28;19921;-61
2022/11/28 11:14:02;;;;;;;;;;;;;;;8.51;63.27;101399.38;5051509;28;19917;-60
2022/11/28 11:16:47;;;;;;;;;;;;;;;8.62;59.68;101394.16;5046517;28;20379;-60
2022/11/28 11:19:21;;;;;;;;;;;;;;;8.72;59.03;101392.44;5042870;28;19928;-62
2022/11/28 11:21:56;;;;;;;;;;;;;;;8.67;58.71;101395.03;5040282;28;19933;-59
2022/11/28 11:24:22;;;;;;;;;;;;;;;8.61;58.38;101401.13;5032866;28;20007;-60
2022/11/28 11:26:47;;;;;;;;;;;;;;;8.47;58.72;101394.97;5036398;28;19964;-59
2022/11/28 11:29:28;;;;;;;;;;;;;;;8.43;59.54;101393.22;5052003;28;19917;-60
2022/11/28 11:31:54;;;;;;;;;;;;;;;8.35;59.83;101394.91;5041941;28;19928;-60
2022/11/28 11:34:21;;;;;;;;;;;;;;;7.90;60.13;101391.22;5043675;28;19921;-61
2022/11/28 11:36:47;;;;;;;;;;;;;;;8.03;60.90;101393.03;5043406;28;20019;-60
2022/11/28 11:39:13;;;;;;;;;;;;;;;8.08;60.42;101387.81;5040642;28;20070;-60
2022/11/28 11:41:39;;;;;;;;;;;;;;;8.11;60.18;101383.47;5049066;28;19920;-60
2022/11/28 11:44:13;;;;;;;;;;;;;;;7.92;60.71;101381.63;5043877;28;19925;-60
2022/11/28 11:46:57;;;;;;;;;;;;;;;7.99;60.47;101383.41;5052563;28;19950;-60
2022/11/28 11:49:33;;;;;;;;;;;;;;;8.17;60.23;101389.59;5040894;28;19924;-60
2022/11/28 11:52:00;;;;;;;;;;;;;;;8.12;60.33;101385.22;5041186;28;19967;-61
2022/11/28 11:54:28;;;;;;;;;;;;;;;8.15;60.35;101377.38;5045357;28;21499;-61
2022/11/28 11:56:54;;;;;;;;;;;;;;;8.19;60.39;101387.88;5049162;28;19921;-61
2022/11/28 11:59:22;;;;;;;;;;;;;;;8.18;60.47;101384.38;5050225;28;20335;-61
2022/11/28 12:01:50;;;;;;;;;;;;;;;8.11;60.57;101378.22;5041418;28;20000;-59
2022/11/28 12:04:23;;;;;;;;;;;;;;;8.21;60.32;101373.91;5040774;28;19974;-59
2022/11/28 12:06:50;;;;;;;;;;;;;;;7.96;60.65;101374.66;5035309;28;19921;-60
2022/11/28 12:09:25;;;;;;;;;;;;;;;8.12;60.53;101374.75;5033896;28;20408;-59
2022/11/28 12:11:58;;;;;;;;;;;;;;;7.99;60.77;101369.47;5050691;28;19947;-60
2022/11/28 12:14:23;;;;;;;;;;;;;;;8.04;60.67;101376.44;5073086;28;19931;-61
2022/11/28 12:16:57;;;;;;;;;;;;;;;8.09;60.53;101374.72;5042593;28;19921;-60
2022/11/28 12:19:29;;;;;;;;;;;;;;;8.22;60.36;101370.44;5048795;28;19917;-62
2022/11/28 12:22:12;;;;;;;;;;;;;;;8.23;60.01;101374.78;5041334;28;19921;-61
2022/11/28 12:24:52;;;;;;;;;;;;;;;8.33;62.00;101365.22;5052159;28;19983;-60
2022/11/28 12:27:20;;;;;;;;;;;;;;;8.34;60.67;101367.84;5053748;28;20003;-59
2022/11/28 12:29:45;;;;;;;;;;;;;;;8.22;60.24;101362.59;5053378;28;19921;-60
2022/11/28 12:32:31;;;;;;;;;;;;;;;8.18;60.35;101360.81;5053502;28;20333;-60
2022/11/28 12:35:16;;;;;;;;;;;;;;;7.96;60.86;101356.34;5053015;28;20376;-60
2022/11/28 12:38:00;;;;;;;;;;;;;;;7.88;61.53;101358.94;5051938;28;19971;-59
2022/11/28 12:40:44;;;;;;;;;;;;;;;7.86;61.57;101348.47;5054922;28;19920;-61
2022/11/28 12:43:15;;;;;;;;;;;;;;;7.89;61.12;101345.84;5051734;28;20017;-60
2022/11/28 12:45:49;;;;;;;;;;;;;;;7.92;60.84;101342.38;5053308;28;19921;-59
2022/11/28 12:48:50;;;;;;;;;;;;;;;7.96;60.97;101336.28;5053172;28;19938;-59
2022/11/28 12:51:31;;;;;;;;;;;;;;;8.13;60.58;101347.69;5011204;28;19921;-60
2022/11/28 12:54:02;;;;;;;;;;;;;;;8.11;60.53;101346.81;5048580;28;20380;-60
2022/11/28 12:56:34;;;;;;;;;;;;;;;8.16;60.11;101352.06;5055830;28;19917;-59